Time;durP1;ratioP1;P1;durP2;ratioP2;P2;SDS_P1;SDS_P2;PMS_P1;PMS_P2;Temp;Humidity;BMP_temperature;BMP_pressure;BME280_temperature;BME280_humidity;BME280_pressure;Samples;Min_cycle;Max_cycle;Signal;HPM_P1;HPM_P2
2023/05/20 00:00:47;;;;;;;72.30;44.72;;;11.60;99.90;;;;;;5014480;28;20040;-61
2023/05/20 00:03:13;;;;;;;88.18;48.03;;;11.70;99.90;;;;;;5014555;28;20034;-62
2023/05/20 00:05:39;;;;;;;71.50;47.42;;;11.60;99.90;;;;;;5014628;28;20021;-61
2023/05/20 00:08:08;;;;;;;68.05;44.47;;;11.60;99.90;;;;;;5014496;28;20033;-61
2023/05/20 00:10:37;;;;;;;68.03;45.47;;;11.60;99.90;;;;;;5014319;28;20041;-61
2023/05/20 00:13:03;;;;;;;74.30;46.85;;;11.60;99.90;;;;;;5014429;28;20081;-61
2023/05/20 00:15:29;;;;;;;79.40;47.75;;;11.70;99.90;;;;;;5014826;28;20032;-61
2023/05/20 00:17:56;;;;;;;72.90;47.35;;;11.60;99.90;;;;;;5014518;28;20436;-61
2023/05/20 00:20:21;;;;;;;73.57;45.72;;;11.60;99.90;;;;;;5014551;28;20391;-61
2023/05/20 00:22:47;;;;;;;71.85;45.50;;;11.50;99.90;;;;;;5014383;28;20037;-61
2023/05/20 00:25:13;;;;;;;77.38;47.60;;;11.50;99.90;;;;;;5017643;28;20033;-60
2023/05/20 00:27:40;;;;;;;77.13;46.80;;;11.50;99.90;;;;;;5018287;28;20249;-61
2023/05/20 00:30:07;;;;;;;71.25;46.13;;;11.50;99.90;;;;;;5018237;28;20033;-61
2023/05/20 00:32:33;;;;;;;66.53;42.60;;;11.50;99.90;;;;;;5000542;28;20145;-61
2023/05/20 00:35:00;;;;;;;66.00;41.53;;;11.40;99.90;;;;;;5018011;28;20030;-61
2023/05/20 00:37:26;;;;;;;56.90;39.90;;;11.30;99.90;;;;;;5000418;28;20030;-61
2023/05/20 00:39:52;;;;;;;57.67;38.42;;;11.30;99.90;;;;;;5018176;28;20459;-61
2023/05/20 00:42:26;;;;;;;56.67;38.75;;;11.30;99.90;;;;;;5000321;28;20048;-62
2023/05/20 00:44:52;;;;;;;57.65;38.63;;;11.20;99.90;;;;;;5000272;28;20454;-61
2023/05/20 00:47:22;;;;;;;55.80;37.20;;;11.30;99.90;;;;;;5018044;28;20230;-61
2023/05/20 00:49:50;;;;;;;57.72;37.65;;;11.10;99.90;;;;;;5017833;28;20491;-61
2023/05/20 00:52:20;;;;;;;50.30;35.65;;;11.00;99.90;;;;;;5017795;28;20022;-61
2023/05/20 00:54:46;;;;;;;57.15;36.50;;;11.00;99.90;;;;;;5000013;28;20033;-61
2023/05/20 00:57:13;;;;;;;66.15;41.28;;;11.00;99.90;;;;;;5017914;28;20030;-60
2023/05/20 00:59:39;;;;;;;60.72;37.50;;;10.90;99.90;;;;;;5017849;28;20059;-61
2023/05/20 01:02:06;;;;;;;60.30;39.83;;;11.00;99.90;;;;;;5017832;28;20113;-61
2023/05/20 01:04:32;;;;;;;70.30;42.50;;;11.00;99.90;;;;;;5017295;28;20064;-61
2023/05/20 01:07:01;;;;;;;75.43;43.97;;;10.90;99.90;;;;;;5017499;28;20026;-61
2023/05/20 01:09:30;;;;;;;87.07;47.75;;;10.90;99.90;;;;;;5017435;28;20034;-61
2023/05/20 01:12:02;;;;;;;82.00;48.13;;;10.90;99.90;;;;;;5017265;28;20104;-61
2023/05/20 01:14:34;;;;;;;83.90;45.95;;;11.00;99.90;;;;;;5017533;28;20049;-61
2023/05/20 01:17:08;;;;;;;70.30;45.10;;;11.00;99.90;;;;;;4999610;28;20403;-61
2023/05/20 01:19:44;;;;;;;80.57;45.63;;;11.00;99.90;;;;;;5017243;28;20483;-61
2023/05/20 01:22:11;;;;;;;80.00;45.97;;;10.80;99.90;;;;;;4999771;28;20025;-61
2023/05/20 01:24:48;;;;;;;120.15;50.08;;;10.80;99.90;;;;;;5017309;28;20040;-61
2023/05/20 01:27:14;;;;;;;94.00;49.97;;;10.80;99.90;;;;;;5017162;28;20479;-62
2023/05/20 01:29:42;;;;;;;97.03;47.70;;;10.80;99.90;;;;;;4999470;28;20026;-61
2023/05/20 01:32:17;;;;;;;86.70;46.60;;;10.90;99.90;;;;;;5017056;28;20491;-61
2023/05/20 01:34:44;;;;;;;77.70;47.13;;;10.90;99.90;;;;;;5017021;28;20038;-61
2023/05/20 01:37:11;;;;;;;85.20;47.33;;;10.90;99.90;;;;;;5016707;28;20045;-61
2023/05/20 01:39:40;;;;;;;76.07;45.17;;;10.80;99.90;;;;;;4999457;28;20022;-61
2023/05/20 01:42:09;;;;;;;74.07;45.35;;;10.80;99.90;;;;;;4999327;28;20034;-61
2023/05/20 01:44:35;;;;;;;69.32;44.03;;;10.70;99.90;;;;;;4999133;28;20034;-61
2023/05/20 01:47:01;;;;;;;63.28;40.08;;;10.60;99.90;;;;;;5016806;28;20377;-61
2023/05/20 01:49:27;;;;;;;66.90;42.88;;;10.60;99.90;;;;;;4999293;28;20026;-61
2023/05/20 01:51:54;;;;;;;66.85;43.78;;;10.60;99.90;;;;;;5016727;28;20380;-61
2023/05/20 01:54:19;;;;;;;71.03;43.17;;;10.60;99.90;;;;;;5016624;28;20030;-61
2023/05/20 01:56:46;;;;;;;71.05;42.55;;;10.50;99.90;;;;;;5016482;28;20033;-61
2023/05/20 01:59:12;;;;;;;81.20;48.10;;;10.50;99.90;;;;;;4999049;28;20034;-61
2023/05/20 02:01:38;;;;;;;75.10;44.65;;;10.50;99.90;;;;;;4998957;28;20025;-61
2023/05/20 02:04:04;;;;;;;72.85;43.17;;;10.50;99.90;;;;;;5016635;28;20195;-61
2023/05/20 02:06:30;;;;;;;71.63;43.17;;;10.50;99.90;;;;;;4998580;28;20083;-61
2023/05/20 02:08:56;;;;;;;73.72;42.80;;;10.50;99.90;;;;;;5016229;28;20034;-61
2023/05/20 02:11:22;;;;;;;74.45;43.17;;;10.60;99.90;;;;;;4998644;28;20104;-61
2023/05/20 02:13:50;;;;;;;69.82;42.08;;;10.70;99.90;;;;;;5016404;28;20046;-61
2023/05/20 02:16:16;;;;;;;69.68;43.10;;;10.70;99.90;;;;;;4998591;28;20124;-62
2023/05/20 02:18:42;;;;;;;73.70;44.58;;;10.70;99.90;;;;;;5016319;28;20073;-62
2023/05/20 02:21:09;;;;;;;63.40;40.33;;;10.70;99.90;;;;;;4998575;28;20038;-62
2023/05/20 02:23:35;;;;;;;68.55;42.83;;;10.60;99.90;;;;;;4998562;28;20045;-61
2023/05/20 02:26:01;;;;;;;67.28;42.08;;;10.70;99.90;;;;;;4998250;28;20475;-61
2023/05/20 02:28:27;;;;;;;65.90;44.33;;;10.70;99.90;;;;;;5016100;28;20026;-61
2023/05/20 02:30:54;;;;;;;73.25;45.25;;;10.60;99.90;;;;;;4998311;28;20116;-61
2023/05/20 02:33:20;;;;;;;86.43;49.35;;;10.70;99.90;;;;;;5015960;28;20105;-61
2023/05/20 02:35:46;;;;;;;85.28;48.47;;;10.70;99.90;;;;;;5015841;28;20584;-60
2023/05/20 02:38:13;;;;;;;86.05;49.00;;;10.70;99.90;;;;;;4998190;28;20038;-61
2023/05/20 02:40:42;;;;;;;72.88;44.88;;;10.80;99.90;;;;;;5015873;28;20048;-61
2023/05/20 02:43:08;;;;;;;63.05;41.25;;;10.80;99.90;;;;;;4998077;28;20030;-61
2023/05/20 02:45:34;;;;;;;62.63;38.22;;;10.80;99.90;;;;;;4997989;28;20087;-61
2023/05/20 02:48:00;;;;;;;58.97;37.35;;;10.70;99.90;;;;;;4996955;28;20034;-61
2023/05/20 02:50:26;;;;;;;57.67;38.28;;;10.60;99.90;;;;;;4997972;28;20081;-61
2023/05/20 02:52:52;;;;;;;61.45;37.72;;;10.50;99.90;;;;;;4998006;28;20030;-61
2023/05/20 02:55:18;;;;;;;71.95;41.40;;;10.50;99.90;;;;;;4997886;28;20502;-62
2023/05/20 02:57:44;;;;;;;97.13;44.50;;;10.40;99.90;;;;;;5015421;28;20034;-61
2023/05/20 03:00:15;;;;;;;90.68;44.63;;;10.50;99.90;;;;;;4997908;28;20036;-60
2023/05/20 03:02:42;;;;;;;67.22;41.67;;;10.50;99.90;;;;;;4997894;28;20430;-61
2023/05/20 03:05:08;;;;;;;82.55;45.65;;;10.60;99.90;;;;;;5015763;28;20112;-61
2023/05/20 03:07:35;;;;;;;95.13;43.92;;;10.60;99.90;;;;;;4997577;28;20041;-61
2023/05/20 03:10:01;;;;;;;188.55;47.42;;;10.60;99.90;;;;;;5015241;28;20382;-61
2023/05/20 03:12:28;;;;;;;84.32;44.75;;;10.70;99.90;;;;;;4997431;28;20498;-60
2023/05/20 03:14:54;;;;;;;106.97;43.35;;;10.70;99.90;;;;;;4997682;28;20045;-60
2023/05/20 03:17:21;;;;;;;86.45;44.78;;;10.70;99.90;;;;;;4997590;28;20026;-61
2023/05/20 03:19:47;;;;;;;78.15;44.35;;;10.70;99.90;;;;;;4997514;28;20029;-61
2023/05/20 03:22:13;;;;;;;112.30;47.78;;;10.70;99.90;;;;;;4997359;28;20038;-61
2023/05/20 03:24:41;;;;;;;130.98;48.00;;;10.70;99.90;;;;;;4997257;28;20042;-61
2023/05/20 03:27:07;;;;;;;131.98;49.05;;;10.70;99.90;;;;;;5014981;28;20026;-61
2023/05/20 03:29:35;;;;;;;161.35;49.08;;;10.80;99.90;;;;;;4997486;28;20037;-60
2023/05/20 03:32:01;;;;;;;137.07;50.30;;;10.80;99.90;;;;;;4997369;28;20026;-61
2023/05/20 03:34:29;;;;;;;159.63;54.10;;;10.80;99.90;;;;;;5014901;28;20022;-61
2023/05/20 03:36:56;;;;;;;112.30;53.53;;;10.80;99.90;;;;;;4997350;28;20026;-61
2023/05/20 03:39:22;;;;;;;102.68;52.97;;;10.80;99.90;;;;;;5015007;28;20481;-61
2023/05/20 03:41:48;;;;;;;187.68;53.55;;;10.90;99.90;;;;;;5014836;28;20234;-61
2023/05/20 03:44:14;;;;;;;98.90;49.35;;;10.90;99.90;;;;;;4997226;28;20104;-61
2023/05/20 03:46:40;;;;;;;177.35;52.03;;;10.90;99.90;;;;;;4997004;28;20030;-61
2023/05/20 03:49:07;;;;;;;203.52;52.83;;;10.90;99.90;;;;;;4997090;28;20380;-61
2023/05/20 03:51:33;;;;;;;128.30;48.92;;;10.90;99.90;;;;;;4997168;28;20061;-61
2023/05/20 03:54:05;;;;;;;194.35;51.63;;;10.80;99.90;;;;;;4997097;28;20049;-60
2023/05/20 03:56:31;;;;;;;200.18;53.03;;;10.80;99.90;;;;;;4996985;28;20475;-61
2023/05/20 03:58:57;;;;;;;166.85;53.22;;;10.90;99.90;;;;;;4996633;28;20045;-61
2023/05/20 04:01:24;;;;;;;202.25;49.95;;;10.90;99.90;;;;;;5014826;28;20060;-61
2023/05/20 04:03:51;;;;;;;222.18;48.03;;;10.90;99.90;;;;;;4996925;28;20072;-61
2023/05/20 04:06:17;;;;;;;117.85;48.30;;;10.90;99.90;;;;;;5014552;28;20478;-61
2023/05/20 04:08:43;;;;;;;100.07;48.10;;;10.90;99.90;;;;;;4996693;28;20116;-61
2023/05/20 04:11:09;;;;;;;82.75;45.78;;;11.10;99.90;;;;;;4993497;28;20074;-61
2023/05/20 04:13:35;;;;;;;88.22;46.25;;;11.10;99.90;;;;;;4993997;28;20041;-61
2023/05/20 04:16:04;;;;;;;167.80;50.38;;;11.30;99.90;;;;;;4993598;28;20117;-62
2023/05/20 04:18:30;;;;;;;113.28;48.28;;;11.30;99.90;;;;;;4993390;28;20081;-61
2023/05/20 04:20:57;;;;;;;89.82;49.30;;;11.30;99.90;;;;;;4993648;28;20034;-62
2023/05/20 04:23:24;;;;;;;103.15;49.22;;;11.40;99.90;;;;;;4994789;28;20093;-61
2023/05/20 04:25:49;;;;;;;115.82;50.92;;;11.50;99.90;;;;;;4993413;28;20615;-61
2023/05/20 04:28:16;;;;;;;135.48;53.28;;;11.50;99.90;;;;;;4993536;28;20204;-62
2023/05/20 04:30:43;;;;;;;106.68;50.40;;;11.50;99.90;;;;;;4993461;28;20030;-62
2023/05/20 04:33:11;;;;;;;92.68;49.40;;;11.60;99.90;;;;;;4994655;28;20030;-61
2023/05/20 04:35:40;;;;;;;217.55;60.83;;;11.70;99.90;;;;;;4993486;28;20556;-61
2023/05/20 04:38:08;;;;;;;204.57;60.97;;;11.60;99.90;;;;;;4993478;28;20054;-61
2023/05/20 04:40:34;;;;;;;118.97;61.83;;;11.40;99.90;;;;;;4993440;28;20034;-62
2023/05/20 04:43:00;;;;;;;127.95;62.28;;;11.50;99.90;;;;;;4994626;28;20031;-61
2023/05/20 04:45:26;;;;;;;142.75;60.80;;;11.70;99.90;;;;;;4993001;28;20042;-61
2023/05/20 04:47:53;;;;;;;128.35;59.15;;;11.80;99.90;;;;;;4994638;28;20027;-61
2023/05/20 04:50:20;;;;;;;113.85;55.97;;;11.90;99.90;;;;;;4993344;28;20454;-61
2023/05/20 04:52:46;;;;;;;141.52;54.45;;;12.00;99.90;;;;;;4993142;28;20069;-61
2023/05/20 04:55:14;;;;;;;120.47;58.47;;;11.90;99.90;;;;;;4994578;28;20058;-62
2023/05/20 04:57:40;;;;;;;123.05;55.58;;;11.90;99.90;;;;;;4993286;28;20034;-62
2023/05/20 05:00:11;;;;;;;123.03;54.38;;;12.00;99.90;;;;;;4994237;28;20031;-61
2023/05/20 05:02:38;;;;;;;119.13;57.08;;;11.90;99.90;;;;;;4993197;28;20034;-61
2023/05/20 05:05:05;;;;;;;111.70;53.85;;;12.10;99.90;;;;;;4993175;28;20045;-62
2023/05/20 05:07:31;;;;;;;112.50;54.85;;;12.20;99.90;;;;;;4994216;28;20387;-62
2023/05/20 05:09:57;;;;;;;109.53;54.88;;;12.30;99.90;;;;;;4992973;28;20109;-62
2023/05/20 05:12:23;;;;;;;134.65;54.63;;;12.40;99.90;;;;;;4996016;28;20042;-62
2023/05/20 05:14:49;;;;;;;109.68;52.67;;;12.50;99.90;;;;;;4997754;28;20041;-62
2023/05/20 05:17:15;;;;;;;86.85;48.08;;;12.50;99.90;;;;;;4997882;28;20027;-62
2023/05/20 05:19:41;;;;;;;79.72;45.83;;;12.60;99.90;;;;;;4997785;28;20093;-62
2023/05/20 05:22:07;;;;;;;76.65;43.50;;;12.60;99.90;;;;;;4996166;28;20034;-62
2023/05/20 05:24:34;;;;;;;87.50;44.25;;;12.70;99.90;;;;;;4996600;28;20030;-61
2023/05/20 05:27:00;;;;;;;89.68;47.65;;;12.70;99.90;;;;;;4996274;28;20023;-62
2023/05/20 05:29:26;;;;;;;94.60;47.25;;;12.70;99.90;;;;;;4996466;28;20037;-61
2023/05/20 05:31:52;;;;;;;103.88;49.50;;;12.90;99.90;;;;;;4996362;28;20053;-61
2023/05/20 05:34:18;;;;;;;96.85;48.00;;;12.90;99.90;;;;;;4997568;28;20026;-62
2023/05/20 05:36:44;;;;;;;100.72;49.53;;;12.80;99.90;;;;;;4996334;28;20122;-61
2023/05/20 05:39:10;;;;;;;92.00;49.00;;;13.00;99.90;;;;;;4996171;28;20038;-62
2023/05/20 05:41:36;;;;;;;98.10;49.45;;;13.00;99.90;;;;;;4996094;28;20512;-62
2023/05/20 05:44:04;;;;;;;85.20;44.78;;;13.00;99.90;;;;;;4996006;28;20030;-61
2023/05/20 05:46:30;;;;;;;74.90;43.55;;;13.00;99.90;;;;;;4997185;28;20104;-61
2023/05/20 05:48:57;;;;;;;74.38;43.47;;;13.20;99.90;;;;;;4995959;28;20038;-61
2023/05/20 05:51:26;;;;;;;74.53;45.65;;;13.20;99.90;;;;;;4996157;28;20380;-61
2023/05/20 05:53:53;;;;;;;75.05;40.90;;;13.40;99.90;;;;;;4995864;28;20408;-62
2023/05/20 05:56:20;;;;;;;63.78;40.70;;;13.60;99.90;;;;;;4997166;28;20069;-61
2023/05/20 05:58:47;;;;;;;75.47;43.05;;;13.60;99.90;;;;;;4995689;28;20456;-62
2023/05/20 06:01:13;;;;;;;80.80;45.08;;;13.70;99.90;;;;;;4995832;28;20037;-62
2023/05/20 06:03:39;;;;;;;77.85;44.92;;;13.80;99.90;;;;;;4995610;28;20075;-62
2023/05/20 06:06:05;;;;;;;86.38;46.83;;;13.80;99.90;;;;;;4995570;28;20038;-61
2023/05/20 06:08:32;;;;;;;77.10;44.03;;;13.90;99.90;;;;;;4995522;28;20039;-62
2023/05/20 06:10:58;;;;;;;73.93;43.75;;;14.00;99.90;;;;;;4995058;28;20050;-61
2023/05/20 06:13:25;;;;;;;81.55;44.03;;;13.80;99.90;;;;;;4995646;28;20123;-62
2023/05/20 06:15:52;;;;;;;80.72;45.35;;;13.60;99.90;;;;;;4995366;28;20042;-61
2023/05/20 06:18:18;;;;;;;71.30;42.10;;;13.70;99.90;;;;;;4995338;28;20035;-62
2023/05/20 06:20:44;;;;;;;68.35;40.22;;;13.80;99.90;;;;;;4995403;28;20062;-61
2023/05/20 06:23:10;;;;;;;68.80;40.35;;;13.90;99.90;;;;;;4994950;28;20031;-61
2023/05/20 06:25:45;;;;;;;60.10;39.20;;;13.90;99.90;;;;;;4994898;28;20400;-62
2023/05/20 06:28:11;;;;;;;57.95;37.35;;;13.90;99.90;;;;;;4995390;28;20611;-61
2023/05/20 06:30:38;;;;;;;78.53;45.40;;;14.20;99.90;;;;;;4995454;28;20026;-62
2023/05/20 06:33:04;;;;;;;71.07;42.97;;;14.50;99.90;;;;;;4996163;28;20035;-62
2023/05/20 06:35:30;;;;;;;67.75;40.63;;;14.70;99.90;;;;;;4995119;28;20133;-62
2023/05/20 06:37:56;;;;;;;64.88;41.45;;;14.90;99.90;;;;;;4995091;28;20030;-62
2023/05/20 06:40:22;;;;;;;69.82;43.08;;;14.90;99.90;;;;;;4996582;28;20053;-61
2023/05/20 06:42:48;;;;;;;77.63;44.90;;;15.00;99.90;;;;;;4995200;28;20554;-61
2023/05/20 06:45:14;;;;;;;75.25;43.05;;;15.10;99.90;;;;;;4994690;28;20035;-62
2023/05/20 06:47:53;;;;;;;66.82;43.05;;;15.10;99.90;;;;;;4994789;28;20628;-61
2023/05/20 06:50:20;;;;;;;70.72;43.60;;;15.10;99.90;;;;;;4994845;28;20034;-61
2023/05/20 06:52:46;;;;;;;69.20;42.05;;;15.20;99.90;;;;;;4995927;28;20033;-62
2023/05/20 06:55:12;;;;;;;66.72;41.45;;;15.20;99.90;;;;;;4994662;28;20384;-61
2023/05/20 06:57:39;;;;;;;61.05;41.20;;;15.40;99.90;;;;;;4994800;28;20313;-62
2023/05/20 07:00:06;;;;;;;60.13;40.38;;;15.60;99.90;;;;;;4994528;28;20546;-62
2023/05/20 07:02:37;;;;;;;58.53;39.97;;;15.80;99.90;;;;;;4994637;28;20081;-62
2023/05/20 07:05:04;;;;;;;52.80;37.33;;;16.00;99.90;;;;;;4994362;28;20030;-62
2023/05/20 07:07:30;;;;;;;60.17;40.30;;;16.10;99.90;;;;;;4994610;28;20023;-62
2023/05/20 07:09:57;;;;;;;62.35;41.80;;;16.20;99.90;;;;;;4994417;28;20031;-61
2023/05/20 07:12:24;;;;;;;69.85;43.92;;;16.20;99.90;;;;;;4994181;28;20042;-61
2023/05/20 07:14:50;;;;;;;68.40;43.13;;;16.30;99.90;;;;;;4994174;28;20033;-61
2023/05/20 07:17:16;;;;;;;72.78;44.78;;;16.50;99.90;;;;;;4994396;28;20034;-61
2023/05/20 07:19:44;;;;;;;69.85;45.10;;;16.40;99.90;;;;;;4994100;28;20038;-62
2023/05/20 07:22:10;;;;;;;77.93;48.47;;;16.60;99.90;;;;;;4994110;28;20394;-62
2023/05/20 07:24:56;;;;;;;75.70;48.13;;;16.80;99.90;;;;;;4994141;28;20037;-62
2023/05/20 07:27:22;;;;;;;72.25;45.17;;;16.80;99.90;;;;;;4994273;28;20589;-61
2023/05/20 07:29:48;;;;;;;70.78;44.22;;;17.10;99.90;;;;;;4995427;28;20026;-62
2023/05/20 07:32:14;;;;;;;68.03;43.28;;;17.30;99.90;;;;;;4994080;28;20027;-61
2023/05/20 07:34:41;;;;;;;72.45;43.83;;;17.40;99.90;;;;;;4994677;28;20027;-62
2023/05/20 07:37:09;;;;;;;64.95;43.25;;;17.60;99.90;;;;;;4993950;28;20089;-62
2023/05/20 07:39:36;;;;;;;70.90;44.97;;;17.80;99.90;;;;;;4993988;28;20118;-62
2023/05/20 07:42:02;;;;;;;62.97;43.63;;;18.10;99.90;;;;;;4994057;28;20061;-62
2023/05/20 07:44:28;;;;;;;59.95;41.17;;;18.50;99.90;;;;;;4977492;28;20018;-61
2023/05/20 07:46:55;;;;;;;58.92;41.55;;;18.90;99.90;;;;;;4993848;28;20113;-62
2023/05/20 07:49:21;;;;;;;60.53;42.75;;;19.40;99.90;;;;;;4993913;28;20026;-61
2023/05/20 07:51:47;;;;;;;57.85;40.65;;;19.80;99.90;;;;;;4993769;28;20396;-62
2023/05/20 07:54:14;;;;;;;63.97;43.08;;;20.20;99.90;;;;;;4993826;28;20030;-61
2023/05/20 07:56:41;;;;;;;59.78;39.42;;;20.30;99.90;;;;;;4993792;28;20286;-62
2023/05/20 07:59:09;;;;;;;55.33;38.60;;;20.50;99.90;;;;;;4993636;28;20565;-62
2023/05/20 08:01:41;;;;;;;57.63;38.97;;;19.90;99.90;;;;;;4993772;28;20400;-62
2023/05/20 08:04:08;;;;;;;53.85;38.90;;;20.40;99.90;;;;;;4993745;28;20031;-62
2023/05/20 08:06:35;;;;;;;61.85;39.65;;;20.30;99.90;;;;;;4993608;28;20041;-62
2023/05/20 08:09:06;;;;;;;53.42;38.15;;;20.40;99.90;;;;;;4993592;28;20026;-62
2023/05/20 08:11:35;;;;;;;54.83;38.45;;;20.40;99.90;;;;;;4993365;28;20055;-62
2023/05/20 08:14:02;;;;;;;54.15;37.88;;;20.60;99.90;;;;;;4993655;28;20149;-62
2023/05/20 08:16:31;;;;;;;54.87;39.37;;;20.60;99.90;;;;;;4993559;28;20041;-62
2023/05/20 08:18:58;;;;;;;63.58;40.97;;;20.80;99.90;;;;;;4993500;28;20355;-62
2023/05/20 08:21:24;;;;;;;56.78;40.22;;;21.30;99.90;;;;;;4994866;28;20109;-62
2023/05/20 08:23:50;;;;;;;57.58;38.53;;;21.60;99.90;;;;;;4993541;28;20085;-62
2023/05/20 08:26:16;;;;;;;57.13;37.20;;;21.90;99.90;;;;;;4993112;28;20049;-62
2023/05/20 08:28:42;;;;;;;51.08;37.60;;;22.10;98.60;;;;;;4993564;28;20023;-62
2023/05/20 08:31:09;;;;;;;56.97;38.75;;;22.40;97.80;;;;;;4993440;28;20038;-62
2023/05/20 08:33:35;;;;;;;52.05;38.03;;;22.40;97.30;;;;;;4993295;28;20488;-62
2023/05/20 08:36:01;;;;;;;53.15;37.20;;;22.50;97.90;;;;;;4993295;28;20049;-63
2023/05/20 08:38:28;;;;;;;48.33;34.13;;;22.80;95.90;;;;;;4994714;28;20031;-63
2023/05/20 08:40:56;;;;;;;51.13;36.10;;;22.80;94.40;;;;;;4993188;28;20435;-63
2023/05/20 08:43:23;;;;;;;53.42;37.50;;;23.20;94.50;;;;;;4993464;28;20365;-63
2023/05/20 08:45:51;;;;;;;51.75;38.83;;;23.40;94.40;;;;;;4995587;28;20038;-63
2023/05/20 08:48:21;;;;;;;49.60;36.60;;;23.50;92.90;;;;;;4997016;28;20232;-63
2023/05/20 08:50:50;;;;;;;48.28;33.25;;;23.70;92.10;;;;;;4998384;28;20088;-63
2023/05/20 08:53:17;;;;;;;45.40;33.42;;;24.10;93.00;;;;;;4998223;28;20407;-63
2023/05/20 08:55:47;;;;;;;48.25;33.78;;;24.30;91.00;;;;;;4996863;28;20045;-63
2023/05/20 08:58:15;;;;;;;46.53;33.67;;;24.40;90.70;;;;;;4998151;28;20038;-63
2023/05/20 09:00:41;;;;;;;40.80;30.48;;;24.90;91.60;;;;;;4998050;28;20026;-63
2023/05/20 09:03:07;;;;;;;40.90;31.10;;;25.40;86.50;;;;;;4998136;28;20520;-63
2023/05/20 09:05:33;;;;;;;45.05;33.00;;;25.50;86.00;;;;;;4998141;28;20034;-63
2023/05/20 09:08:10;;;;;;;41.67;31.50;;;25.70;82.50;;;;;;4997931;28;20025;-63
2023/05/20 09:10:38;;;;;;;38.60;29.48;;;25.50;81.30;;;;;;5000840;28;20117;-63
2023/05/20 09:13:05;;;;;;;44.35;31.17;;;25.80;83.20;;;;;;5017491;28;20026;-63
2023/05/20 09:15:32;;;;;;;38.70;28.58;;;25.90;82.70;;;;;;5017550;28;20108;-63
2023/05/20 09:18:03;;;;;;;36.28;28.42;;;26.30;86.70;;;;;;5017253;28;20025;-64
2023/05/20 09:20:31;;;;;;;42.22;29.38;;;26.40;77.20;;;;;;5017277;28;20095;-63
2023/05/20 09:23:01;;;;;;;39.60;28.65;;;26.40;79.70;;;;;;5017258;28;20454;-63
2023/05/20 09:25:31;;;;;;;36.13;28.52;;;26.70;80.20;;;;;;5017345;28;20030;-63
2023/05/20 09:27:57;;;;;;;41.10;27.02;;;27.10;82.00;;;;;;4997631;28;20057;-63
2023/05/20 09:30:23;;;;;;;36.90;27.60;;;27.50;78.10;;;;;;4997675;28;20411;-63
2023/05/20 09:32:56;;;;;;;41.63;28.73;;;27.60;74.20;;;;;;4997657;28;20086;-63
2023/05/20 09:35:23;;;;;;;36.90;26.58;;;27.80;74.10;;;;;;4997533;28;20037;-63
2023/05/20 09:37:54;;;;;;;38.50;27.23;;;27.70;69.20;;;;;;4997448;28;20065;-64
2023/05/20 09:40:26;;;;;;;30.40;23.17;;;27.30;71.60;;;;;;4997385;28;20117;-64
2023/05/20 09:43:04;;;;;;;30.10;23.77;;;27.40;73.20;;;;;;4997324;28;20109;-63
2023/05/20 09:45:30;;;;;;;27.02;23.13;;;27.70;70.80;;;;;;5009553;28;20471;-64
2023/05/20 09:47:56;;;;;;;27.35;19.55;;;27.70;74.70;;;;;;5016810;28;20032;-64
2023/05/20 09:50:23;;;;;;;27.65;18.88;;;27.40;66.90;;;;;;5016738;28;20049;-64
2023/05/20 09:52:51;;;;;;;27.88;20.60;;;27.50;67.70;;;;;;5016780;28;20026;-64
2023/05/20 09:55:19;;;;;;;26.65;21.15;;;27.80;67.80;;;;;;5016597;28;20022;-64
2023/05/20 09:57:46;;;;;;;30.27;22.13;;;27.90;68.30;;;;;;5016059;28;20553;-64
2023/05/20 10:00:16;;;;;;;31.25;21.70;;;27.30;67.80;;;;;;5016526;28;20030;-64
2023/05/20 10:02:44;;;;;;;32.00;21.27;;;27.50;67.70;;;;;;5016650;28;20040;-64
2023/05/20 10:05:20;;;;;;;28.75;21.38;;;27.00;67.70;;;;;;5016401;28;20050;-64
2023/05/20 10:08:21;;;;;;;26.25;20.13;;;27.40;71.50;;;;;;5016390;28;20026;-64
2023/05/20 10:10:49;;;;;;;;;;;27.30;67.30;;;;;;5011518;28;20068;-64
2023/05/20 10:13:56;;;;;;;15.68;10.35;;;27.40;66.30;;;;;;5016344;28;19956;-64
2023/05/20 10:16:40;;;;;;;16.55;9.18;;;27.70;56.00;;;;;;5016557;28;20084;-64
2023/05/20 10:19:18;;;;;;;15.02;8.90;;;28.00;54.60;;;;;;4998830;28;20079;-63
2023/05/20 10:21:55;;;;;;;10.63;8.70;;;27.80;52.10;;;;;;5016182;28;20032;-64
2023/05/20 10:24:33;;;;;;;14.80;7.82;;;26.50;49.70;;;;;;5016208;28;20033;-63
2023/05/20 10:27:02;;;;;;;16.65;11.80;;;25.90;49.40;;;;;;5016076;28;20072;-63
2023/05/20 10:29:28;;;;;;;12.48;8.45;;;25.60;56.30;;;;;;5015929;28;20459;-63
2023/05/20 10:31:54;;;;;;;11.90;8.82;;;26.70;54.80;;;;;;5016067;28;20057;-64
2023/05/20 10:34:22;;;;;;;15.80;8.70;;;27.40;52.50;;;;;;5015937;28;20030;-64
2023/05/20 10:36:54;;;;;;;11.45;9.00;;;27.00;54.10;;;;;;5015781;28;20396;-63
2023/05/20 10:39:34;;;;;;;12.23;8.65;;;27.10;51.60;;;;;;5015982;28;20037;-64
2023/05/20 10:42:10;;;;;;;15.45;9.00;;;27.00;51.50;;;;;;5016100;28;20092;-64
2023/05/20 10:44:48;;;;;;;13.50;9.73;;;26.60;48.80;;;;;;5015927;28;20037;-63
2023/05/20 10:47:14;;;;;;;20.02;10.20;;;26.90;48.90;;;;;;5015676;28;20038;-64
2023/05/20 10:49:46;;;;;;;16.80;10.20;;;26.60;53.10;;;;;;5015749;28;20081;-64
2023/05/20 10:52:19;;;;;;;16.98;9.90;;;27.30;54.20;;;;;;5015589;28;20049;-64
2023/05/20 10:54:57;;;;;;;17.70;9.63;;;27.20;48.10;;;;;;5015656;28;20022;-64
2023/05/20 10:57:26;;;;;;;17.42;9.93;;;27.30;49.10;;;;;;5015976;28;20514;-64
2023/05/20 10:59:52;;;;;;;13.65;10.10;;;27.30;51.10;;;;;;5015346;28;20026;-64
2023/05/20 11:02:25;;;;;;;14.52;10.32;;;26.70;50.80;;;;;;5015492;28;20029;-64
2023/05/20 11:04:52;;;;;;;18.40;10.70;;;26.20;53.40;;;;;;5015270;28;20030;-64
2023/05/20 11:07:28;;;;;;;15.60;10.57;;;26.20;52.20;;;;;;5015418;28;20018;-64
2023/05/20 11:09:57;;;;;;;13.57;10.77;;;26.40;51.30;;;;;;5014401;28;20530;-64
2023/05/20 11:12:25;;;;;;;13.95;10.57;;;26.50;52.80;;;;;;5015326;28;20385;-64
2023/05/20 11:14:52;;;;;;;12.35;10.57;;;26.60;53.40;;;;;;5015375;28;20029;-64
2023/05/20 11:17:20;;;;;;;12.63;10.15;;;27.00;52.20;;;;;;5015051;28;20026;-64
2023/05/20 11:19:47;;;;;;;14.45;10.40;;;26.30;51.80;;;;;;5015203;28;20029;-64
2023/05/20 11:22:14;;;;;;;18.05;11.02;;;26.00;52.70;;;;;;5015108;28;20391;-63
2023/05/20 11:24:40;;;;;;;15.05;10.18;;;26.00;53.60;;;;;;5015140;28;20510;-64
2023/05/20 11:27:06;;;;;;;15.50;10.23;;;26.30;53.80;;;;;;5015107;28;20030;-64
2023/05/20 11:29:32;;;;;;;18.45;11.15;;;26.30;50.40;;;;;;5015087;28;20034;-64
2023/05/20 11:32:00;;;;;;;38.58;12.65;;;25.90;52.60;;;;;;5015134;28;20105;-64
2023/05/20 11:34:33;;;;;;;16.13;10.98;;;26.30;56.00;;;;;;5014908;28;20029;-64
2023/05/20 11:36:59;;;;;;;16.17;11.02;;;27.10;57.70;;;;;;5014833;28;20038;-65
2023/05/20 11:39:29;;;;;;;15.48;11.32;;;27.50;55.60;;;;;;5014881;28;20053;-64
2023/05/20 11:41:55;;;;;;;16.03;11.50;;;26.50;53.60;;;;;;5014983;28;20157;-64
2023/05/20 11:44:21;;;;;;;17.88;11.60;;;27.00;56.40;;;;;;5014804;28;20034;-64
2023/05/20 11:46:47;;;;;;;15.32;10.88;;;26.60;53.90;;;;;;5014690;28;20037;-64
2023/05/20 11:49:14;;;;;;;37.30;16.38;;;27.00;56.50;;;;;;5014807;28;20372;-65
2023/05/20 11:51:41;;;;;;;21.10;11.90;;;27.70;57.40;;;;;;5014703;28;20060;-64
2023/05/20 11:54:08;;;;;;;14.75;11.48;;;28.10;55.00;;;;;;5014813;28;20264;-65
2023/05/20 11:56:40;;;;;;;25.10;12.57;;;28.30;54.80;;;;;;5014807;28;20083;-64
2023/05/20 11:59:08;;;;;;;15.15;11.27;;;28.40;53.40;;;;;;5014605;28;20053;-64
2023/05/20 12:01:36;;;;;;;45.20;16.80;;;27.60;52.40;;;;;;5014973;28;20061;-64
2023/05/20 12:04:04;;;;;;;16.85;10.07;;;27.90;56.20;;;;;;5014627;28;20026;-64
2023/05/20 12:06:30;;;;;;;14.98;11.27;;;27.10;52.50;;;;;;5014422;28;20089;-64
2023/05/20 12:09:05;;;;;;;15.57;10.68;;;27.50;55.00;;;;;;5014494;28;20487;-64
2023/05/20 12:11:34;;;;;;;14.90;11.27;;;26.60;53.90;;;;;;5014133;28;20057;-64
2023/05/20 12:14:01;;;;;;;18.15;11.80;;;27.00;59.60;;;;;;5014283;28;20418;-64
2023/05/20 12:16:27;;;;;;;15.02;10.90;;;27.40;56.60;;;;;;5014561;28;20022;-64
2023/05/20 12:18:53;;;;;;;16.10;11.80;;;27.50;58.00;;;;;;4997038;28;20100;-64
2023/05/20 12:21:19;;;;;;;15.70;10.90;;;27.70;57.40;;;;;;5018173;28;20072;-64
2023/05/20 12:23:45;;;;;;;13.75;10.68;;;27.80;58.80;;;;;;5018329;28;20025;-64
2023/05/20 12:26:11;;;;;;;16.17;11.30;;;28.00;57.90;;;;;;5018200;28;20025;-64
2023/05/20 12:28:37;;;;;;;15.32;10.63;;;27.90;58.30;;;;;;5018358;28;20034;-64